sensor_id;sensor_type;location;lat;lon;timestamp;pressure;altitude;pressure_sealevel;temperature;humidity
4858;BME280;58975;51.978;8.472;2022-10-16T00:01:19;99826.28;;;12.02;100.00
4858;BME280;58975;51.978;8.472;2022-10-16T00:06:17;99843.25;;;12.11;100.00
4858;BME280;58975;51.978;8.472;2022-10-16T00:11:23;99842.41;;;12.10;100.00
4858;BME280;58975;51.978;8.472;2022-10-16T00:16:20;99832.28;;;12.04;100.00
4858;BME280;58975;51.978;8.472;2022-10-16T00:21:19;99850.13;;;12.04;100.00
4858;BME280;58975;51.978;8.472;2022-10-16T00:26:16;99849.03;;;11.97;100.00
4858;BME280;58975;51.978;8.472;2022-10-16T00:31:13;99843.03;;;11.95;100.00
4858;BME280;58975;51.978;8.472;2022-10-16T00:36:13;99839.69;;;11.83;100.00
4858;BME280;58975;51.978;8.472;2022-10-16T00:41:16;99841.34;;;11.84;100.00
4858;BME280;58975;51.978;8.472;2022-10-16T00:51:23;99847.16;;;11.79;100.00
4858;BME280;58975;51.978;8.472;2022-10-16T00:56:21;99850.53;;;11.72;100.00
4858;BME280;58975;51.978;8.472;2022-10-16T01:01:18;99844.88;;;11.65;100.00
4858;BME280;58975;51.978;8.472;2022-10-16T01:11:57;99866.81;;;11.40;100.00
4858;BME280;58975;51.978;8.472;2022-10-16T01:17:12;99868.25;;;11.25;100.00
4858;BME280;58975;51.978;8.472;2022-10-16T01:22:09;99869.34;;;11.13;100.00
4858;BME280;58975;51.978;8.472;2022-10-16T01:32:19;99871.28;;;10.91;100.00
4858;BME280;58975;51.978;8.472;2022-10-16T01:37:22;99882.75;;;10.82;100.00
4858;BME280;58975;51.978;8.472;2022-10-16T01:42:33;99896.66;;;10.76;100.00
4858;BME280;58975;51.978;8.472;2022-10-16T01:47:31;99900.44;;;10.74;100.00
4858;BME280;58975;51.978;8.472;2022-10-16T01:52:29;99895.06;;;10.64;100.00
4858;BME280;58975;51.978;8.472;2022-10-16T01:57:27;99891.13;;;10.59;100.00
4858;BME280;58975;51.978;8.472;2022-10-16T02:02:26;99895.19;;;10.63;100.00
4858;BME280;58975;51.978;8.472;2022-10-16T02:07:24;99893.03;;;10.47;100.00
4858;BME280;58975;51.978;8.472;2022-10-16T02:12:26;99890.81;;;10.42;100.00
4858;BME280;58975;51.978;8.472;2022-10-16T02:17:24;99882.09;;;10.31;100.00
4858;BME280;58975;51.978;8.472;2022-10-16T02:22:34;99885.13;;;10.26;100.00
4858;BME280;58975;51.978;8.472;2022-10-16T02:27:50;99882.47;;;10.26;100.00
4858;BME280;58975;51.978;8.472;2022-10-16T02:32:50;99884.38;;;10.45;100.00
4858;BME280;58975;51.978;8.472;2022-10-16T02:37:48;99883.78;;;10.41;100.00
4858;BME280;58975;51.978;8.472;2022-10-16T02:42:50;99884.38;;;10.45;100.00
4858;BME280;58975;51.978;8.472;2022-10-16T02:47:47;99894.47;;;10.51;100.00
4858;BME280;58975;51.978;8.472;2022-10-16T02:52:43;99909.34;;;10.54;100.00
4858;BME280;58975;51.978;8.472;2022-10-16T02:57:40;99899.56;;;10.64;100.00
4858;BME280;58975;51.978;8.472;2022-10-16T03:02:36;99916.94;;;10.68;100.00
4858;BME280;58975;51.978;8.472;2022-10-16T03:07:33;99919.38;;;10.90;100.00
4858;BME280;58975;51.978;8.472;2022-10-16T03:12:29;99930.47;;;10.95;100.00
4858;BME280;58975;51.978;8.472;2022-10-16T03:17:26;99909.16;;;10.95;100.00
4858;BME280;58975;51.978;8.472;2022-10-16T03:22:23;99926.38;;;10.91;100.00
4858;BME280;58975;51.978;8.472;2022-10-16T03:27:19;99921.63;;;10.95;100.00
4858;BME280;58975;51.978;8.472;2022-10-16T03:32:15;99909.03;;;10.97;100.00
4858;BME280;58975;51.978;8.472;2022-10-16T03:37:12;99913.38;;;10.98;100.00
4858;BME280;58975;51.978;8.472;2022-10-16T03:42:08;99936.06;;;10.92;100.00
4858;BME280;58975;51.978;8.472;2022-10-16T03:47:05;99925.84;;;10.97;100.00
4858;BME280;58975;51.978;8.472;2022-10-16T03:52:01;99932.84;;;10.88;100.00
4858;BME280;58975;51.978;8.472;2022-10-16T03:56:57;99933.16;;;11.05;100.00
4858;BME280;58975;51.978;8.472;2022-10-16T04:01:54;99930.50;;;11.14;100.00
4858;BME280;58975;51.978;8.472;2022-10-16T04:06:51;99925.19;;;11.24;100.00
4858;BME280;58975;51.978;8.472;2022-10-16T04:11:47;99925.75;;;11.37;100.00
4858;BME280;58975;51.978;8.472;2022-10-16T04:16:43;99925.19;;;11.43;100.00
4858;BME280;58975;51.978;8.472;2022-10-16T04:21:40;99915.66;;;11.50;100.00
4858;BME280;58975;51.978;8.472;2022-10-16T04:26:37;99929.09;;;11.49;100.00
4858;BME280;58975;51.978;8.472;2022-10-16T04:31:33;99937.84;;;11.60;100.00
4858;BME280;58975;51.978;8.472;2022-10-16T04:36:29;99954.38;;;11.54;100.00
4858;BME280;58975;51.978;8.472;2022-10-16T04:41:26;99957.75;;;11.66;100.00
4858;BME280;58975;51.978;8.472;2022-10-16T04:46:23;99946.94;;;11.67;100.00
4858;BME280;58975;51.978;8.472;2022-10-16T04:51:19;99957.31;;;11.70;100.00
4858;BME280;58975;51.978;8.472;2022-10-16T04:56:15;99963.13;;;11.75;100.00
4858;BME280;58975;51.978;8.472;2022-10-16T05:01:13;99979.28;;;11.83;100.00
4858;BME280;58975;51.978;8.472;2022-10-16T05:06:09;99969.56;;;11.82;100.00
4858;BME280;58975;51.978;8.472;2022-10-16T05:11:05;99970.97;;;11.87;100.00
4858;BME280;58975;51.978;8.472;2022-10-16T05:16:02;99974.06;;;11.92;100.00
4858;BME280;58975;51.978;8.472;2022-10-16T05:20:58;99956.06;;;11.84;100.00
4858;BME280;58975;51.978;8.472;2022-10-16T05:25:56;99967.19;;;11.79;100.00
4858;BME280;58975;51.978;8.472;2022-10-16T05:30:54;99976.97;;;11.69;100.00
4858;BME280;58975;51.978;8.472;2022-10-16T05:35:51;99969.56;;;11.63;100.00
4858;BME280;58975;51.978;8.472;2022-10-16T05:40:51;99968.69;;;11.53;100.00
4858;BME280;58975;51.978;8.472;2022-10-16T05:46:00;99961.41;;;11.36;100.00
4858;BME280;58975;51.978;8.472;2022-10-16T05:51:05;99982.72;;;11.36;100.00
4858;BME280;58975;51.978;8.472;2022-10-16T05:56:04;99995.06;;;11.37;100.00
4858;BME280;58975;51.978;8.472;2022-10-16T06:01:05;100012.22;;;11.44;100.00
4858;BME280;58975;51.978;8.472;2022-10-16T06:06:14;99999.25;;;11.30;100.00
4858;BME280;58975;51.978;8.472;2022-10-16T06:11:16;99999.97;;;11.32;100.00
4858;BME280;58975;51.978;8.472;2022-10-16T06:16:13;100020.31;;;11.33;100.00
4858;BME280;58975;51.978;8.472;2022-10-16T06:21:12;100025.94;;;11.39;100.00
4858;BME280;58975;51.978;8.472;2022-10-16T06:26:12;100017.25;;;11.47;100.00
4858;BME280;58975;51.978;8.472;2022-10-16T06:31:10;100023.44;;;11.67;100.00
4858;BME280;58975;51.978;8.472;2022-10-16T06:36:12;100017.16;;;11.77;100.00
4858;BME280;58975;51.978;8.472;2022-10-16T06:41:11;100033.31;;;12.05;100.00
4858;BME280;58975;51.978;8.472;2022-10-16T06:46:10;100045.66;;;12.25;100.00
4858;BME280;58975;51.978;8.472;2022-10-16T06:51:15;100040.03;;;12.28;100.00
4858;BME280;58975;51.978;8.472;2022-10-16T06:56:19;100047.59;;;12.42;100.00
4858;BME280;58975;51.978;8.472;2022-10-16T07:01:17;100048.41;;;12.52;100.00
4858;BME280;58975;51.978;8.472;2022-10-16T07:06:17;100041.94;;;12.55;100.00
4858;BME280;58975;51.978;8.472;2022-10-16T07:11:16;100046.53;;;12.62;100.00
4858;BME280;58975;51.978;8.472;2022-10-16T07:16:16;100044.28;;;12.67;100.00
4858;BME280;58975;51.978;8.472;2022-10-16T07:21:14;100058.53;;;12.95;100.00
4858;BME280;58975;51.978;8.472;2022-10-16T07:26:11;100060.81;;;13.27;100.00
4858;BME280;58975;51.978;8.472;2022-10-16T07:31:10;100069.03;;;13.43;100.00
4858;BME280;58975;51.978;8.472;2022-10-16T07:36:07;100076.22;;;13.43;100.00
4858;BME280;58975;51.978;8.472;2022-10-16T07:41:12;100085.13;;;13.61;100.00
4858;BME280;58975;51.978;8.472;2022-10-16T07:46:10;100092.69;;;13.65;100.00
4858;BME280;58975;51.978;8.472;2022-10-16T07:51:06;100098.53;;;13.79;100.00
4858;BME280;58975;51.978;8.472;2022-10-16T07:56:05;100110.84;;;13.71;100.00
4858;BME280;58975;51.978;8.472;2022-10-16T08:01:06;100123.41;;;13.61;100.00
4858;BME280;58975;51.978;8.472;2022-10-16T08:06:04;100111.59;;;13.64;100.00
4858;BME280;58975;51.978;8.472;2022-10-16T08:11:00;100120.41;;;13.92;100.00
4858;BME280;58975;51.978;8.472;2022-10-16T08:16:00;100125.16;;;14.15;100.00
4858;BME280;58975;51.978;8.472;2022-10-16T08:20:58;100135.94;;;14.23;100.00
4858;BME280;58975;51.978;8.472;2022-10-16T08:26:02;100138.28;;;14.36;100.00
4858;BME280;58975;51.978;8.472;2022-10-16T08:31:25;100145.19;;;14.39;100.00
4858;BME280;58975;51.978;8.472;2022-10-16T08:36:23;100151.81;;;14.70;100.00
4858;BME280;58975;51.978;8.472;2022-10-16T08:41:54;100158.38;;;14.76;100.00
4858;BME280;58975;51.978;8.472;2022-10-16T08:47:11;100170.47;;;14.80;100.00
4858;BME280;58975;51.978;8.472;2022-10-16T08:52:15;100183.88;;;14.97;100.00
4858;BME280;58975;51.978;8.472;2022-10-16T08:57:20;100187.69;;;14.95;100.00
4858;BME280;58975;51.978;8.472;2022-10-16T09:02:53;100197.91;;;15.17;100.00
4858;BME280;58975;51.978;8.472;2022-10-16T09:23:24;100231.09;;;15.68;100.00
4858;BME280;58975;51.978;8.472;2022-10-16T09:28:21;100230.97;;;15.77;100.00
4858;BME280;58975;51.978;8.472;2022-10-16T09:33:19;100237.25;;;15.94;100.00
4858;BME280;58975;51.978;8.472;2022-10-16T09:43:26;100244.69;;;16.08;100.00
4858;BME280;58975;51.978;8.472;2022-10-16T09:48:37;100235.47;;;16.02;100.00
4858;BME280;58975;51.978;8.472;2022-10-16T09:53:43;100244.03;;;15.72;100.00
4858;BME280;58975;51.978;8.472;2022-10-16T09:58:43;100247.94;;;15.78;100.00
4858;BME280;58975;51.978;8.472;2022-10-16T10:09:55;100269.81;;;15.91;100.00
4858;BME280;58975;51.978;8.472;2022-10-16T10:14:55;100279.66;;;16.16;100.00
4858;BME280;58975;51.978;8.472;2022-10-16T10:20:01;100281.34;;;16.17;100.00
4858;BME280;58975;51.978;8.472;2022-10-16T10:35:22;100296.31;;;16.62;100.00
4858;BME280;58975;51.978;8.472;2022-10-16T10:40:29;100296.16;;;16.79;100.00
4858;BME280;58975;51.978;8.472;2022-10-16T10:45:31;100296.97;;;16.64;100.00
4858;BME280;58975;51.978;8.472;2022-10-16T10:50:48;100314.81;;;16.73;100.00
4858;BME280;58975;51.978;8.472;2022-10-16T10:55:51;100309.41;;;16.65;100.00
4858;BME280;58975;51.978;8.472;2022-10-16T11:06:25;100320.34;;;16.71;100.00
4858;BME280;58975;51.978;8.472;2022-10-16T11:11:27;100316.97;;;16.61;100.00
4858;BME280;58975;51.978;8.472;2022-10-16T11:16:31;100326.91;;;16.77;100.00
4858;BME280;58975;51.978;8.472;2022-10-16T11:21:40;100315.50;;;16.99;100.00
4858;BME280;58975;51.978;8.472;2022-10-16T11:26:41;100326.63;;;17.12;100.00
4858;BME280;58975;51.978;8.472;2022-10-16T11:31:42;100332.34;;;17.25;100.00
4858;BME280;58975;51.978;8.472;2022-10-16T11:36:45;100336.72;;;17.50;100.00
4858;BME280;58975;51.978;8.472;2022-10-16T11:41:55;100330.63;;;17.89;100.00
4858;BME280;58975;51.978;8.472;2022-10-16T11:52:42;100336.88;;;17.49;100.00
4858;BME280;58975;51.978;8.472;2022-10-16T11:57:49;100330.34;;;17.19;100.00
4858;BME280;58975;51.978;8.472;2022-10-16T12:08:14;100340.03;;;16.80;100.00
4858;BME280;58975;51.978;8.472;2022-10-16T12:13:32;100339.00;;;16.65;100.00
4858;BME280;58975;51.978;8.472;2022-10-16T12:18:28;100348.72;;;16.58;100.00
4858;BME280;58975;51.978;8.472;2022-10-16T12:23:25;100345.22;;;16.65;100.00
4858;BME280;58975;51.978;8.472;2022-10-16T12:28:26;100355.22;;;17.13;100.00
4858;BME280;58975;51.978;8.472;2022-10-16T12:33:27;100360.09;;;17.42;100.00
4858;BME280;58975;51.978;8.472;2022-10-16T12:38:45;100347.53;;;17.59;100.00
4858;BME280;58975;51.978;8.472;2022-10-16T12:43:47;100354.59;;;17.68;100.00
4858;BME280;58975;51.978;8.472;2022-10-16T12:48:44;100361.28;;;17.80;100.00
4858;BME280;58975;51.978;8.472;2022-10-16T12:54:13;100371.41;;;17.62;100.00
4858;BME280;58975;51.978;8.472;2022-10-16T13:04:47;100378.13;;;17.66;100.00
4858;BME280;58975;51.978;8.472;2022-10-16T13:10:08;100383.84;;;17.55;100.00
4858;BME280;58975;51.978;8.472;2022-10-16T13:15:29;100389.41;;;17.69;100.00
4858;BME280;58975;51.978;8.472;2022-10-16T13:20:41;100391.94;;;17.71;100.00
4858;BME280;58975;51.978;8.472;2022-10-16T13:26:08;100392.59;;;17.73;100.00
4858;BME280;58975;51.978;8.472;2022-10-16T13:31:15;100391.91;;;17.46;100.00
4858;BME280;58975;51.978;8.472;2022-10-16T13:36:25;100395.31;;;17.73;100.00
4858;BME280;58975;51.978;8.472;2022-10-16T13:41:21;100404.72;;;17.77;100.00
4858;BME280;58975;51.978;8.472;2022-10-16T13:46:25;100411.44;;;17.89;100.00
4858;BME280;58975;51.978;8.472;2022-10-16T13:51:21;100419.88;;;17.94;100.00
4858;BME280;58975;51.978;8.472;2022-10-16T13:56:20;100404.91;;;17.75;100.00
4858;BME280;58975;51.978;8.472;2022-10-16T14:01:20;100404.53;;;18.03;100.00
4858;BME280;58975;51.978;8.472;2022-10-16T14:06:24;100410.59;;;18.05;100.00
4858;BME280;58975;51.978;8.472;2022-10-16T14:11:22;100426.97;;;17.71;100.00
4858;BME280;58975;51.978;8.472;2022-10-16T14:16:21;100430.97;;;17.50;100.00
4858;BME280;58975;51.978;8.472;2022-10-16T14:21:18;100429.78;;;17.29;100.00
4858;BME280;58975;51.978;8.472;2022-10-16T14:26:19;100429.91;;;17.27;100.00
4858;BME280;58975;51.978;8.472;2022-10-16T14:31:30;100425.91;;;17.39;100.00
4858;BME280;58975;51.978;8.472;2022-10-16T14:36:28;100427.56;;;17.48;100.00
4858;BME280;58975;51.978;8.472;2022-10-16T14:41:25;100426.28;;;17.69;100.00
4858;BME280;58975;51.978;8.472;2022-10-16T14:46:32;100421.56;;;17.71;100.00
4858;BME280;58975;51.978;8.472;2022-10-16T14:51:29;100424.88;;;17.48;100.00
4858;BME280;58975;51.978;8.472;2022-10-16T14:56:29;100423.00;;;17.33;100.00
4858;BME280;58975;51.978;8.472;2022-10-16T15:01:28;100416.16;;;17.46;100.00
4858;BME280;58975;51.978;8.472;2022-10-16T15:06:25;100422.94;;;17.67;100.00
4858;BME280;58975;51.978;8.472;2022-10-16T15:11:21;100424.25;;;17.87;100.00
4858;BME280;58975;51.978;8.472;2022-10-16T15:16:17;100431.66;;;17.85;100.00
4858;BME280;58975;51.978;8.472;2022-10-16T15:21:32;100437.75;;;17.71;100.00
4858;BME280;58975;51.978;8.472;2022-10-16T15:26:29;100451.72;;;17.74;100.00
4858;BME280;58975;51.978;8.472;2022-10-16T15:31:26;100447.50;;;17.72;100.00
4858;BME280;58975;51.978;8.472;2022-10-16T15:36:36;100439.38;;;17.39;100.00
4858;BME280;58975;51.978;8.472;2022-10-16T15:41:33;100446.63;;;16.89;100.00
4858;BME280;58975;51.978;8.472;2022-10-16T15:46:29;100440.78;;;16.60;100.00
4858;BME280;58975;51.978;8.472;2022-10-16T15:51:27;100435.91;;;16.29;100.00
4858;BME280;58975;51.978;8.472;2022-10-16T15:56:25;100420.34;;;15.89;100.00
4858;BME280;58975;51.978;8.472;2022-10-16T16:01:22;100413.16;;;15.72;100.00
4858;BME280;58975;51.978;8.472;2022-10-16T16:06:19;100436.28;;;15.65;100.00
4858;BME280;58975;51.978;8.472;2022-10-16T16:11:16;100451.09;;;15.51;100.00
4858;BME280;58975;51.978;8.472;2022-10-16T16:16:14;100440.91;;;15.10;100.00
4858;BME280;58975;51.978;8.472;2022-10-16T16:21:11;100441.56;;;14.94;100.00
4858;BME280;58975;51.978;8.472;2022-10-16T16:26:27;100446.94;;;14.94;100.00
4858;BME280;58975;51.978;8.472;2022-10-16T16:31:26;100440.88;;;14.92;100.00
4858;BME280;58975;51.978;8.472;2022-10-16T16:36:24;100445.00;;;14.87;100.00
4858;BME280;58975;51.978;8.472;2022-10-16T16:41:24;100440.34;;;14.89;100.00
4858;BME280;58975;51.978;8.472;2022-10-16T16:46:22;100440.56;;;14.78;100.00
4858;BME280;58975;51.978;8.472;2022-10-16T16:51:18;100427.50;;;14.65;100.00
4858;BME280;58975;51.978;8.472;2022-10-16T16:56:17;100455.59;;;14.61;100.00
4858;BME280;58975;51.978;8.472;2022-10-16T17:01:13;100454.94;;;14.49;100.00
4858;BME280;58975;51.978;8.472;2022-10-16T17:06:16;100446.63;;;14.43;100.00
4858;BME280;58975;51.978;8.472;2022-10-16T17:11:22;100453.13;;;14.40;100.00
4858;BME280;58975;51.978;8.472;2022-10-16T17:16:18;100449.31;;;14.33;100.00
4858;BME280;58975;51.978;8.472;2022-10-16T17:21:15;100469.53;;;14.18;100.00
4858;BME280;58975;51.978;8.472;2022-10-16T17:26:14;100472.50;;;14.15;100.00
4858;BME280;58975;51.978;8.472;2022-10-16T17:31:34;100485.88;;;14.15;100.00
4858;BME280;58975;51.978;8.472;2022-10-16T17:36:31;100488.69;;;14.04;100.00
4858;BME280;58975;51.978;8.472;2022-10-16T17:41:29;100495.34;;;13.90;100.00
4858;BME280;58975;51.978;8.472;2022-10-16T17:46:26;100495.19;;;13.92;100.00
4858;BME280;58975;51.978;8.472;2022-10-16T17:51:25;100488.16;;;13.91;100.00
4858;BME280;58975;51.978;8.472;2022-10-16T17:56:23;100476.91;;;13.78;100.00
4858;BME280;58975;51.978;8.472;2022-10-16T18:06:17;100507.19;;;13.40;100.00
4858;BME280;58975;51.978;8.472;2022-10-16T18:11:19;100527.59;;;13.50;100.00
4858;BME280;58975;51.978;8.472;2022-10-16T18:16:16;100530.28;;;13.50;100.00
4858;BME280;58975;51.978;8.472;2022-10-16T18:21:15;100530.28;;;13.50;100.00
4858;BME280;58975;51.978;8.472;2022-10-16T18:26:12;100520.97;;;13.45;100.00
4858;BME280;58975;51.978;8.472;2022-10-16T18:31:14;100529.28;;;13.32;100.00
4858;BME280;58975;51.978;8.472;2022-10-16T18:36:10;100536.25;;;13.14;100.00
4858;BME280;58975;51.978;8.472;2022-10-16T18:41:07;100537.56;;;12.99;100.00
4858;BME280;58975;51.978;8.472;2022-10-16T18:46:06;100533.94;;;13.00;100.00
4858;BME280;58975;51.978;8.472;2022-10-16T18:51:12;100535.34;;;13.04;100.00
4858;BME280;58975;51.978;8.472;2022-10-16T18:56:11;100535.06;;;13.07;100.00
4858;BME280;58975;51.978;8.472;2022-10-16T19:01:15;100521.91;;;13.15;100.00
4858;BME280;58975;51.978;8.472;2022-10-16T19:06:14;100514.00;;;13.13;100.00
4858;BME280;58975;51.978;8.472;2022-10-16T19:11:14;100506.63;;;13.06;100.00
4858;BME280;58975;51.978;8.472;2022-10-16T19:16:23;100516.00;;;12.91;100.00
4858;BME280;58975;51.978;8.472;2022-10-16T19:21:20;100518.28;;;12.86;100.00
4858;BME280;58975;51.978;8.472;2022-10-16T19:26:18;100507.19;;;13.00;100.00
4858;BME280;58975;51.978;8.472;2022-10-16T19:31:16;100518.16;;;12.97;100.00
4858;BME280;58975;51.978;8.472;2022-10-16T19:41:15;100527.16;;;12.96;100.00
4858;BME280;58975;51.978;8.472;2022-10-16T19:46:14;100522.66;;;12.96;100.00
4858;BME280;58975;51.978;8.472;2022-10-16T19:51:16;100533.81;;;13.01;100.00
4858;BME280;58975;51.978;8.472;2022-10-16T19:56:18;100534.09;;;13.08;100.00
4858;BME280;58975;51.978;8.472;2022-10-16T20:01:17;100517.41;;;13.15;100.00
4858;BME280;58975;51.978;8.472;2022-10-16T20:06:14;100520.72;;;13.08;100.00
4858;BME280;58975;51.978;8.472;2022-10-16T20:11:17;100538.72;;;13.06;100.00
4858;BME280;58975;51.978;8.472;2022-10-16T20:16:15;100558.47;;;13.14;100.00
4858;BME280;58975;51.978;8.472;2022-10-16T20:21:16;100561.63;;;13.29;100.00
4858;BME280;58975;51.978;8.472;2022-10-16T20:26:13;100565.47;;;13.36;100.00
4858;BME280;58975;51.978;8.472;2022-10-16T20:31:14;100582.25;;;13.57;100.00
4858;BME280;58975;51.978;8.472;2022-10-16T20:36:14;100601.28;;;13.73;100.00
4858;BME280;58975;51.978;8.472;2022-10-16T20:41:11;100612.88;;;13.93;100.00
4858;BME280;58975;51.978;8.472;2022-10-16T20:46:10;100584.25;;;13.94;100.00
4858;BME280;58975;51.978;8.472;2022-10-16T20:51:30;100568.19;;;13.84;100.00
4858;BME280;58975;51.978;8.472;2022-10-16T20:56:28;100576.91;;;13.77;100.00
4858;BME280;58975;51.978;8.472;2022-10-16T21:01:27;100587.22;;;13.71;100.00
4858;BME280;58975;51.978;8.472;2022-10-16T21:06:24;100584.22;;;13.65;100.00
4858;BME280;58975;51.978;8.472;2022-10-16T21:11:24;100593.53;;;13.70;100.00
4858;BME280;58975;51.978;8.472;2022-10-16T21:16:21;100595.50;;;13.59;100.00
4858;BME280;58975;51.978;8.472;2022-10-16T21:21:26;100590.56;;;13.54;100.00
4858;BME280;58975;51.978;8.472;2022-10-16T21:26:24;100590.09;;;13.49;100.00
4858;BME280;58975;51.978;8.472;2022-10-16T21:31:23;100606.84;;;13.42;100.00
4858;BME280;58975;51.978;8.472;2022-10-16T21:36:25;100592.09;;;13.57;100.00
4858;BME280;58975;51.978;8.472;2022-10-16T21:41:24;100588.44;;;13.48;100.00
4858;BME280;58975;51.978;8.472;2022-10-16T21:46:23;100595.63;;;13.48;100.00
4858;BME280;58975;51.978;8.472;2022-10-16T21:51:24;100600.97;;;13.48;100.00
4858;BME280;58975;51.978;8.472;2022-10-16T21:56:21;100600.41;;;13.44;100.00
4858;BME280;58975;51.978;8.472;2022-10-16T22:01:20;100607.28;;;13.47;100.00
4858;BME280;58975;51.978;8.472;2022-10-16T22:06:19;100607.28;;;13.47;100.00
4858;BME280;58975;51.978;8.472;2022-10-16T22:11:23;100601.53;;;13.51;100.00
4858;BME280;58975;51.978;8.472;2022-10-16T22:16:22;100593.19;;;13.45;100.00
4858;BME280;58975;51.978;8.472;2022-10-16T22:21:18;100596.84;;;13.34;100.00
4858;BME280;58975;51.978;8.472;2022-10-16T22:26:15;100599.66;;;13.42;100.00
4858;BME280;58975;51.978;8.472;2022-10-16T22:31:12;100606.09;;;13.30;100.00
4858;BME280;58975;51.978;8.472;2022-10-16T22:36:11;100600.59;;;13.22;100.00
4858;BME280;58975;51.978;8.472;2022-10-16T22:41:11;100595.34;;;13.11;100.00
4858;BME280;58975;51.978;8.472;2022-10-16T22:46:09;100604.09;;;13.13;100.00
4858;BME280;58975;51.978;8.472;2022-10-16T22:51:06;100603.59;;;13.08;100.00
4858;BME280;58975;51.978;8.472;2022-10-16T22:56:03;100601.59;;;13.00;100.00
4858;BME280;58975;51.978;8.472;2022-10-16T23:01:00;100614.81;;;13.02;100.00
4858;BME280;58975;51.978;8.472;2022-10-16T23:05:56;100613.09;;;13.21;100.00
4858;BME280;58975;51.978;8.472;2022-10-16T23:10:52;100618.09;;;13.05;100.00
4858;BME280;58975;51.978;8.472;2022-10-16T23:15:49;100622.44;;;13.06;100.00
4858;BME280;58975;51.978;8.472;2022-10-16T23:20:45;100631.81;;;13.12;100.00
4858;BME280;58975;51.978;8.472;2022-10-16T23:25:45;100629.59;;;13.17;100.00
4858;BME280;58975;51.978;8.472;2022-10-16T23:30:44;100621.59;;;13.26;100.00
4858;BME280;58975;51.978;8.472;2022-10-16T23:35:41;100617.63;;;13.21;100.00
4858;BME280;58975;51.978;8.472;2022-10-16T23:40:37;100627.38;;;13.32;100.00
4858;BME280;58975;51.978;8.472;2022-10-16T23:45:33;100631.09;;;13.40;100.00
4858;BME280;58975;51.978;8.472;2022-10-16T23:50:30;100623.91;;;13.50;100.00
4858;BME280;58975;51.978;8.472;2022-10-16T23:55:26;100627.44;;;13.51;100.00
